Time;durP1;ratioP1;P1;durP2;ratioP2;P2;SDS_P1;SDS_P2;PMS_P1;PMS_P2;Temp;Humidity;BMP_temperature;BMP_pressure;BME280_temperature;BME280_humidity;BME280_pressure;Samples;Min_cycle;Max_cycle;Signal;HPM_P1;HPM_P2
2023/01/24 00:00:05;;;;;;;44.80;18.52;;;1.10;99.90;;;;;;5029642;28;20056;-59
2023/01/24 00:02:31;;;;;;;36.72;19.90;;;1.10;99.90;;;;;;5015229;28;20451;-57
2023/01/24 00:04:57;;;;;;;44.85;19.27;;;1.10;99.90;;;;;;5027123;28;20029;-60
2023/01/24 00:07:22;;;;;;;54.05;20.35;;;1.10;99.90;;;;;;5022316;28;20096;-59
2023/01/24 00:09:48;;;;;;;48.53;20.17;;;1.10;99.90;;;;;;5028471;28;20403;-53
2023/01/24 00:12:13;;;;;;;49.60;20.05;;;1.10;99.90;;;;;;5032789;28;20029;-60
2023/01/24 00:14:40;;;;;;;48.58;20.33;;;1.10;99.90;;;;;;5050656;28;20030;-55
2023/01/24 00:17:07;;;;;;;45.85;19.88;;;1.00;99.90;;;;;;5050419;28;20464;-57
2023/01/24 00:19:33;;;;;;;52.47;20.25;;;1.00;99.90;;;;;;5050801;28;20067;-62
2023/01/24 00:21:59;;;;;;;59.00;22.40;;;1.00;99.90;;;;;;5037542;28;20053;-60
2023/01/24 00:24:26;;;;;;;51.17;20.73;;;1.00;99.90;;;;;;5030504;28;20559;-62
2023/01/24 00:26:52;;;;;;;44.63;19.13;;;1.00;99.90;;;;;;5030963;28;20038;-60
2023/01/24 00:29:18;;;;;;;51.88;19.98;;;1.00;99.90;;;;;;5026045;28;20030;-62
2023/01/24 00:31:43;;;;;;;47.95;20.98;;;1.00;99.90;;;;;;5034624;28;20032;-60
2023/01/24 00:34:09;;;;;;;52.90;22.23;;;1.00;99.90;;;;;;5050313;28;20127;-59
2023/01/24 00:36:34;;;;;;;54.35;19.85;;;1.00;99.90;;;;;;5031599;28;20049;-57
2023/01/24 00:39:00;;;;;;;57.30;21.73;;;0.90;99.90;;;;;;5030226;28;20021;-60
2023/01/24 00:41:26;;;;;;;61.33;22.58;;;0.90;99.90;;;;;;5030553;28;20100;-60
2023/01/24 00:43:51;;;;;;;58.33;21.67;;;0.90;99.90;;;;;;5030283;28;20029;-62
2023/01/24 00:46:17;;;;;;;66.97;22.52;;;0.90;99.90;;;;;;5030633;28;20041;-55
2023/01/24 00:48:42;;;;;;;55.10;21.15;;;0.90;99.90;;;;;;5030552;28;20018;-59
2023/01/24 00:51:08;;;;;;;50.90;20.27;;;0.90;99.90;;;;;;5030342;28;20029;-61
2023/01/24 00:53:34;;;;;;;60.40;21.42;;;0.90;99.90;;;;;;5030602;28;20040;-61
2023/01/24 00:56:00;;;;;;;60.92;22.00;;;0.90;99.90;;;;;;5034040;28;20461;-60
2023/01/24 00:58:25;;;;;;;57.63;21.88;;;0.90;99.90;;;;;;5034225;28;20022;-58
2023/01/24 01:00:55;;;;;;;49.80;20.67;;;1.30;99.90;;;;;;5034869;28;20484;-56
2023/01/24 01:03:20;;;;;;;48.78;19.67;;;0.90;99.90;;;;;;5034893;28;20108;-61
2023/01/24 01:05:46;;;;;;;52.92;20.33;;;0.90;99.90;;;;;;5034973;28;20108;-60
2023/01/24 01:08:12;;;;;;;46.30;20.33;;;0.80;99.90;;;;;;5034264;28;20036;-62
2023/01/24 01:10:39;;;;;;;51.38;19.65;;;0.80;99.90;;;;;;5034845;28;20079;-60
2023/01/24 01:13:04;;;;;;;53.20;20.70;;;1.10;99.90;;;;;;5033891;28;20459;-59
2023/01/24 01:15:31;;;;;;;33.40;17.60;;;0.80;99.90;;;;;;5015727;28;20087;-60
2023/01/24 01:17:57;;;;;;;41.00;18.88;;;0.80;99.90;;;;;;5033772;28;20057;-61
2023/01/24 01:20:23;;;;;;;34.50;17.95;;;0.80;99.90;;;;;;5033635;28;20382;-57
2023/01/24 01:22:48;;;;;;;42.72;17.70;;;0.80;99.90;;;;;;5034190;28;20029;-59
2023/01/24 01:25:14;;;;;;;41.03;16.67;;;0.80;99.90;;;;;;5033597;28;20037;-61
2023/01/24 01:27:40;;;;;;;28.73;16.35;;;0.80;99.90;;;;;;5034221;28;20500;-59
2023/01/24 01:30:06;;;;;;;37.78;16.83;;;0.90;99.90;;;;;;5033809;28;20515;-62
2023/01/24 01:32:32;;;;;;;30.45;15.55;;;0.70;99.90;;;;;;5033801;28;20026;-62
2023/01/24 01:34:58;;;;;;;37.15;17.38;;;0.70;99.90;;;;;;5033501;28;20443;-61
2023/01/24 01:37:24;;;;;;;29.05;14.77;;;0.70;99.90;;;;;;5033896;28;20052;-60
2023/01/24 01:39:49;;;;;;;30.23;16.27;;;0.60;99.90;;;;;;5033817;28;20025;-59
2023/01/24 01:42:15;;;;;;;27.67;15.68;;;0.60;99.90;;;;;;5033807;28;20087;-59
2023/01/24 01:44:46;;;;;;;42.70;17.58;;;0.60;99.90;;;;;;5033159;28;20029;-59
2023/01/24 01:47:27;;;;;;;35.20;15.18;;;0.60;99.90;;;;;;5033291;28;20447;-61
2023/01/24 01:50:01;;;;;;;36.28;16.05;;;0.70;99.90;;;;;;5033498;28;20030;-56
2023/01/24 01:52:40;;;;;;;27.70;15.27;;;0.70;99.90;;;;;;5033133;28;20049;-60
2023/01/24 01:55:12;;;;;;;24.45;15.32;;;0.70;99.90;;;;;;5033348;28;20493;-57
2023/01/24 01:57:40;;;;;;;25.83;14.60;;;0.60;99.90;;;;;;5033280;28;20037;-55
2023/01/24 02:00:13;;;;;;;30.48;15.95;;;0.70;99.90;;;;;;5032757;28;20029;-56
2023/01/24 02:02:43;;;;;;;27.10;13.88;;;0.60;99.90;;;;;;5032471;28;20056;-58
2023/01/24 02:05:11;;;;;;;29.52;15.85;;;0.60;99.90;;;;;;5032863;28;20022;-56
2023/01/24 02:07:55;;;;;;;23.40;14.00;;;0.60;99.90;;;;;;5032821;28;20496;-58
2023/01/24 02:10:24;;;;;;;20.30;13.85;;;0.60;99.90;;;;;;5030600;28;20381;-61
2023/01/24 02:12:53;;;;;;;26.25;14.38;;;0.60;99.90;;;;;;5032802;28;20033;-60
2023/01/24 02:18:08;;;;;;;26.67;14.82;;;0.50;99.90;;;;;;5033283;28;20568;-61
2023/01/24 02:20:38;;;;;;;24.98;13.93;;;0.50;99.90;;;;;;5033077;28;20472;-59
2023/01/24 02:23:43;;;;;;;28.00;13.98;;;0.50;99.90;;;;;;5032570;28;20518;-60
2023/01/24 02:26:17;;;;;;;17.77;13.93;;;0.60;99.90;;;;;;5032927;28;20525;-60
2023/01/24 02:28:48;;;;;;;25.83;14.60;;;0.50;99.90;;;;;;5031878;28;20060;-60
2023/01/24 02:31:14;;;;;;;20.08;14.20;;;0.50;99.90;;;;;;5014211;28;20096;-60
2023/01/24 02:33:40;;;;;;;21.42;13.40;;;0.50;99.90;;;;;;5031678;28;20504;-58
2023/01/24 02:36:20;;;;;;;19.88;13.05;;;0.50;99.90;;;;;;5032368;28;20030;-59
2023/01/24 02:39:10;;;;;;;16.35;12.48;;;0.60;99.90;;;;;;5103537;23;20072;-63
2023/01/24 02:41:51;;;;;;;16.17;12.77;;;0.50;99.90;;;;;;5093226;28;20024;-62
2023/01/24 02:44:26;;;;;;;26.08;12.50;;;0.50;99.90;;;;;;5092646;28;20065;-64
2023/01/24 02:46:51;;;;;;;20.30;11.88;;;0.70;99.90;;;;;;5092273;28;20032;-67
2023/01/24 02:49:17;;;;;;;16.27;12.20;;;0.50;99.90;;;;;;5072667;28;20399;-63
2023/01/24 02:54:27;;;;;;;14.05;10.85;;;0.40;99.90;;;;;;5072109;28;20189;-64
2023/01/24 02:59:36;;;;;;;20.92;12.38;;;0.40;99.90;;;;;;5072227;28;20142;-65
2023/01/24 03:02:02;;;;;;;15.05;11.10;;;0.40;99.90;;;;;;5072012;28;20522;-65
2023/01/24 03:04:27;;;;;;;12.40;10.77;;;0.50;99.90;;;;;;5071918;28;20090;-68
2023/01/24 03:06:53;;;;;;;18.50;11.13;;;0.40;99.90;;;;;;5071239;28;20067;-63
2023/01/24 03:09:19;;;;;;;11.63;9.93;;;0.40;99.90;;;;;;5071921;28;20025;-68
2023/01/24 03:11:49;;;;;;;14.65;9.73;;;0.50;99.90;;;;;;5071888;28;20033;-64
2023/01/24 03:36:19;;;;;;;21.92;10.85;;;0.30;99.90;;;;;;5071473;28;20039;-62
2023/01/24 03:41:30;;;;;;;13.48;11.50;;;0.30;99.90;;;;;;5071421;28;20051;-66
2023/01/24 03:43:56;;;;;;;15.35;11.98;;;0.40;99.90;;;;;;5071290;28;20021;-63
2023/01/24 03:46:21;;;;;;;16.13;11.40;;;0.50;99.90;;;;;;5071619;28;20411;-67
2023/01/24 03:48:47;;;;;;;18.70;11.35;;;0.40;99.90;;;;;;5071109;28;20028;-65
2023/01/24 03:53:57;;;;;;;16.38;11.70;;;0.70;99.90;;;;;;5071160;28;20423;-63
2023/01/24 03:56:22;;;;;;;14.50;10.85;;;0.40;99.90;;;;;;5070566;28;20024;-65
2023/01/24 03:58:48;;;;;;;14.27;12.05;;;0.30;99.90;;;;;;5070760;28;20025;-66
2023/01/24 04:01:14;;;;;;;15.63;10.48;;;0.30;99.90;;;;;;5071004;28;20458;-65
2023/01/24 04:03:39;;;;;;;17.02;10.18;;;0.30;99.90;;;;;;5070558;28;20499;-64
2023/01/24 04:06:05;;;;;;;15.57;11.27;;;0.30;99.90;;;;;;5070847;28;20492;-66
2023/01/24 04:08:31;;;;;;;14.07;12.25;;;0.30;99.90;;;;;;5070995;28;20032;-64
2023/01/24 04:10:57;;;;;;;12.48;10.40;;;0.30;99.90;;;;;;5065676;28;20038;-67
2023/01/24 04:13:23;;;;;;;16.63;12.07;;;0.30;99.90;;;;;;5069291;28;20032;-67
2023/01/24 04:15:49;;;;;;;17.70;12.15;;;0.30;99.90;;;;;;5050046;28;20020;-69
2023/01/24 04:18:15;;;;;;;16.73;11.43;;;0.30;99.90;;;;;;5066465;28;20021;-63
2023/01/24 04:20:40;;;;;;;13.20;10.82;;;0.30;99.90;;;;;;5066074;28;20292;-64
2023/01/24 04:23:07;;;;;;;13.38;12.02;;;0.30;99.90;;;;;;5065733;28;20032;-70
2023/01/24 04:25:33;;;;;;;17.85;12.43;;;0.30;99.90;;;;;;5065280;28;20433;-64
2023/01/24 04:28:00;;;;;;;17.25;13.02;;;0.30;99.90;;;;;;5049893;28;20027;-66
2023/01/24 04:30:25;;;;;;;16.27;11.98;;;0.50;99.90;;;;;;5072143;28;20081;-68
2023/01/24 04:32:51;;;;;;;18.85;12.43;;;0.30;99.90;;;;;;5058873;28;20037;-67
2023/01/24 04:35:20;;;;;;;18.75;13.13;;;0.30;99.90;;;;;;5063456;28;20112;-68
2023/01/24 04:37:46;;;;;;;20.00;13.60;;;0.30;99.90;;;;;;5068083;28;20027;-66
2023/01/24 04:40:12;;;;;;;13.77;11.52;;;0.30;99.90;;;;;;5057690;28;20024;-69
2023/01/24 04:42:38;;;;;;;13.40;11.57;;;0.30;99.90;;;;;;5060517;28;20506;-66
2023/01/24 04:45:05;;;;;;;17.08;12.80;;;0.30;99.90;;;;;;5066191;28;20037;-69
2023/01/24 04:47:33;;;;;;;12.05;10.50;;;0.30;99.90;;;;;;5069232;28;20250;-68
2023/01/24 04:49:59;;;;;;;18.63;12.70;;;0.30;99.90;;;;;;5069384;28;20103;-69
2023/01/24 04:52:24;;;;;;;25.98;12.32;;;0.30;99.90;;;;;;5069192;28;20193;-67
2023/01/24 04:54:51;;;;;;;19.20;12.88;;;0.30;99.90;;;;;;5058612;28;20510;-68
2023/01/24 04:57:18;;;;;;;20.20;12.07;;;0.40;99.90;;;;;;5068507;28;20032;-68
2023/01/24 04:59:44;;;;;;;13.82;11.65;;;0.80;99.90;;;;;;5071922;28;20021;-67
2023/01/24 05:02:09;;;;;;;17.67;12.18;;;0.30;99.90;;;;;;5071756;28;20039;-68
2023/01/24 05:04:35;;;;;;;17.70;12.70;;;0.30;99.90;;;;;;5064431;28;20033;-69
2023/01/24 05:07:01;;;;;;;19.27;12.75;;;0.30;99.90;;;;;;5064896;28;20592;-67
2023/01/24 05:09:26;;;;;;;14.77;11.98;;;0.30;99.90;;;;;;5072370;28;20024;-67
2023/01/24 05:11:52;;;;;;;14.90;12.45;;;0.30;99.90;;;;;;5060170;28;20021;-67
2023/01/24 05:14:18;;;;;;;18.10;11.95;;;0.30;99.90;;;;;;5080892;28;20021;-67
2023/01/24 05:16:43;;;;;;;15.93;12.85;;;0.40;99.90;;;;;;5073595;28;20046;-67
2023/01/24 05:19:09;;;;;;;16.10;12.40;;;0.40;99.90;;;;;;5078984;28;20028;-66
2023/01/24 05:21:35;;;;;;;17.33;13.20;;;0.50;99.90;;;;;;5077412;28;20114;-68
2023/01/24 05:24:00;;;;;;;13.90;11.93;;;0.70;99.90;;;;;;5077436;28;20439;-66
2023/01/24 05:26:26;;;;;;;20.48;13.20;;;0.30;99.90;;;;;;5077869;28;20027;-68
2023/01/24 05:28:53;;;;;;;24.05;12.93;;;0.30;99.90;;;;;;5079163;28;20035;-69
2023/01/24 05:31:19;;;;;;;19.60;12.90;;;0.30;99.90;;;;;;5091019;28;20220;-67
2023/01/24 05:33:45;;;;;;;15.35;11.88;;;0.30;99.90;;;;;;5070570;28;20056;-68
2023/01/24 05:36:14;;;;;;;19.95;13.30;;;0.30;99.90;;;;;;5065665;28;20488;-68
2023/01/24 05:38:41;;;;;;;27.77;14.32;;;0.30;99.90;;;;;;5059394;28;20033;-68
2023/01/24 05:41:09;;;;;;;19.35;13.52;;;0.30;99.90;;;;;;5068321;28;20107;-68
2023/01/24 05:43:35;;;;;;;15.35;12.70;;;0.30;99.90;;;;;;5079479;28;20636;-69
2023/01/24 05:46:20;;;;;;;23.00;13.73;;;0.30;99.90;;;;;;5068752;28;20111;-66
2023/01/24 05:48:47;;;;;;;19.20;12.80;;;0.30;99.90;;;;;;5067487;28;20024;-69
2023/01/24 05:51:15;;;;;;;14.50;12.25;;;0.30;99.90;;;;;;5074813;28;20031;-64
2023/01/24 05:53:42;;;;;;;17.83;12.57;;;0.40;99.90;;;;;;5054100;28;20569;-66
2023/01/24 05:56:14;;;;;;;23.15;12.77;;;0.40;99.90;;;;;;5057525;28;20093;-67
2023/01/24 05:58:41;;;;;;;23.25;12.30;;;0.30;99.90;;;;;;5074663;28;20577;-67
2023/01/24 06:01:18;;;;;;;24.33;14.30;;;0.60;99.90;;;;;;5049484;28;20051;-66
2023/01/24 06:03:46;;;;;;;25.75;12.60;;;0.30;99.90;;;;;;5066626;28;21290;-66
2023/01/24 06:06:14;;;;;;;22.42;13.25;;;0.50;99.90;;;;;;5067670;28;20028;-64
2023/01/24 06:08:40;;;;;;;18.40;13.73;;;0.30;99.90;;;;;;5050053;28;20029;-65
2023/01/24 06:11:12;;;;;;;20.77;12.98;;;0.30;99.90;;;;;;5067810;28;20023;-68
2023/01/24 06:13:38;;;;;;;23.10;13.13;;;0.30;99.90;;;;;;5066287;28;20020;-67
2023/01/24 06:16:10;;;;;;;28.85;13.73;;;0.20;99.90;;;;;;5055869;28;20114;-68
2023/01/24 06:18:36;;;;;;;21.40;14.30;;;0.20;99.90;;;;;;5079002;28;20028;-66
2023/01/24 06:21:14;;;;;;;25.25;13.95;;;0.30;99.90;;;;;;5066901;28;20024;-67
2023/01/24 06:23:40;;;;;;;23.70;14.35;;;0.30;99.90;;;;;;5067568;28;20575;-67
2023/01/24 06:26:09;;;;;;;31.33;15.98;;;0.30;99.90;;;;;;5068557;28;20021;-65
2023/01/24 06:28:35;;;;;;;29.73;14.77;;;0.30;99.90;;;;;;5070779;28;20434;-68
2023/01/24 06:31:09;;;;;;;36.40;14.90;;;0.30;99.90;;;;;;5080059;28;20135;-67
2023/01/24 06:33:59;;;;;;;30.98;14.68;;;0.30;99.90;;;;;;5063897;28;20121;-69
2023/01/24 06:36:59;;;;;;;30.63;13.98;;;0.30;99.90;;;;;;5079421;28;20021;-66
2023/01/24 06:39:25;;;;;;;37.95;14.50;;;0.30;99.90;;;;;;5049081;28;20363;-67
2023/01/24 06:41:51;;;;;;;40.20;14.70;;;0.30;99.90;;;;;;5069255;28;20028;-67
2023/01/24 06:44:16;;;;;;;38.97;16.55;;;0.30;99.90;;;;;;5078255;28;20040;-67
2023/01/24 06:46:42;;;;;;;41.55;15.93;;;-1.10;99.90;;;;;;5068736;28;20032;-68
2023/01/24 06:49:10;;;;;;;34.95;14.95;;;0.30;99.90;;;;;;5059296;28;20060;-70
2023/01/24 06:51:36;;;;;;;35.20;14.15;;;0.30;99.90;;;;;;5064094;28;20024;-68
2023/01/24 06:54:02;;;;;;;35.08;14.85;;;0.40;99.90;;;;;;5054848;28;20569;-68
2023/01/24 06:56:27;;;;;;;44.33;16.15;;;0.40;99.90;;;;;;5048832;28;20056;-69
2023/01/24 06:58:53;;;;;;;40.75;15.68;;;0.40;99.90;;;;;;5047376;28;20025;-68
2023/01/24 07:01:19;;;;;;;51.83;17.15;;;0.40;99.90;;;;;;5058017;28;20047;-69
2023/01/24 07:03:44;;;;;;;36.63;16.00;;;0.40;99.90;;;;;;5073915;28;20088;-67
2023/01/24 07:06:10;;;;;;;46.25;16.35;;;0.40;99.90;;;;;;5071278;28;20082;-67
2023/01/24 07:08:36;;;;;;;49.90;16.65;;;0.40;99.90;;;;;;5048242;28;20025;-67
2023/01/24 07:11:02;;;;;;;47.88;16.85;;;0.40;99.90;;;;;;5077223;28;20434;-63
2023/01/24 07:13:27;;;;;;;49.88;16.00;;;0.40;99.90;;;;;;5068798;28;20547;-68
2023/01/24 07:15:53;;;;;;;69.50;17.42;;;0.40;99.90;;;;;;5055301;28;20116;-67
2023/01/24 07:18:19;;;;;;;63.75;18.77;;;0.40;99.90;;;;;;5064500;28;20016;-66
2023/01/24 07:20:46;;;;;;;44.67;16.23;;;0.40;99.90;;;;;;5065863;28;20035;-69
2023/01/24 07:23:31;;;;;;;50.55;17.60;;;0.40;99.90;;;;;;5059534;28;20037;-66
2023/01/24 07:25:56;;;;;;;42.72;16.48;;;0.40;99.90;;;;;;5050640;28;20032;-68
2023/01/24 07:28:22;;;;;;;63.08;21.00;;;0.40;99.90;;;;;;5064489;28;20041;-68
2023/01/24 07:30:49;;;;;;;52.63;17.02;;;0.40;99.90;;;;;;5064890;28;20051;-66
2023/01/24 07:33:15;;;;;;;54.67;18.88;;;0.40;99.90;;;;;;5073076;28;20028;-69
2023/01/24 07:35:42;;;;;;;58.30;19.40;;;0.50;99.90;;;;;;5070339;28;20024;-64
2023/01/24 07:38:07;;;;;;;89.68;28.08;;;1.40;99.90;;;;;;5065810;28;20086;-65
2023/01/24 07:40:33;;;;;;;61.88;21.02;;;0.50;99.90;;;;;;5051544;28;20124;-68
2023/01/24 07:43:02;;;;;;;68.32;21.52;;;0.50;99.90;;;;;;5067719;28;20023;-67
2023/01/24 07:45:28;;;;;;;67.85;20.35;;;0.90;99.90;;;;;;5065557;28;20040;-68
2023/01/24 07:47:58;;;;;;;72.03;20.50;;;0.50;99.90;;;;;;5068141;28;20088;-67
2023/01/24 07:50:30;;;;;;;78.47;23.00;;;0.60;99.90;;;;;;5067635;28;20099;-66
2023/01/24 07:52:56;;;;;;;84.90;21.75;;;0.80;99.90;;;;;;5061055;28;20067;-65
2023/01/24 07:55:22;;;;;;;87.60;26.98;;;0.70;99.90;;;;;;5060614;28;21437;-67
2023/01/24 07:57:48;;;;;;;88.65;28.13;;;0.70;99.90;;;;;;5039406;28;20028;-66
2023/01/24 08:00:15;;;;;;;90.93;28.95;;;0.70;99.90;;;;;;5036177;28;20021;-66
2023/01/24 08:02:42;;;;;;;72.30;23.15;;;0.70;99.90;;;;;;5066227;28;20440;-69
2023/01/24 08:05:08;;;;;;;89.88;23.85;;;0.70;99.90;;;;;;5062891;28;20456;-67
2023/01/24 08:07:33;;;;;;;91.75;25.05;;;0.60;99.90;;;;;;5065490;28;20032;-66
2023/01/24 08:09:59;;;;;;;87.85;24.60;;;0.40;99.90;;;;;;5073590;28;20032;-68
2023/01/24 08:12:25;;;;;;;84.25;22.45;;;0.70;99.90;;;;;;5059353;28;20040;-68
2023/01/24 08:14:50;;;;;;;79.15;21.88;;;0.80;99.90;;;;;;5079787;28;20079;-70
2023/01/24 08:17:16;;;;;;;82.70;23.42;;;0.80;99.90;;;;;;5055527;28;20338;-67
2023/01/24 08:19:42;;;;;;;78.28;22.92;;;0.80;99.90;;;;;;5064723;28;20393;-68
2023/01/24 08:22:08;;;;;;;85.82;23.60;;;0.80;99.90;;;;;;5034287;28;20054;-65
2023/01/24 08:24:35;;;;;;;89.47;23.48;;;0.80;99.90;;;;;;5063338;28;20376;-71
2023/01/24 08:27:02;;;;;;;85.95;23.98;;;1.00;99.90;;;;;;5070340;28;20459;-67
2023/01/24 08:29:28;;;;;;;97.50;24.60;;;0.80;99.90;;;;;;5057972;28;20108;-67
2023/01/24 08:31:55;;;;;;;102.00;27.33;;;0.90;99.90;;;;;;5061943;28;20065;-67
2023/01/24 08:34:20;;;;;;;95.30;27.20;;;0.90;99.90;;;;;;5061317;28;20051;-68
2023/01/24 08:36:46;;;;;;;111.90;27.40;;;0.90;99.90;;;;;;5060909;28;20488;-66
2023/01/24 08:39:12;;;;;;;93.30;26.17;;;0.80;99.90;;;;;;5077561;22;20058;-58
2023/01/24 08:41:37;;;;;;;112.30;27.55;;;0.90;99.90;;;;;;5066105;28;20025;-61
2023/01/24 08:44:04;;;;;;;96.38;24.48;;;0.80;99.90;;;;;;5064570;28;20036;-58
2023/01/24 08:46:31;;;;;;;108.82;27.23;;;0.90;99.90;;;;;;5065611;28;20040;-62
2023/01/24 08:48:57;;;;;;;110.55;26.63;;;1.00;99.90;;;;;;5062592;28;20467;-59
2023/01/24 08:51:23;;;;;;;101.03;24.85;;;1.00;99.90;;;;;;5059451;28;20051;-56
2023/01/24 08:53:48;;;;;;;101.75;25.30;;;1.00;99.90;;;;;;5062964;28;20060;-62
2023/01/24 08:56:14;;;;;;;99.50;25.90;;;1.10;99.90;;;;;;5063641;28;20032;-60
2023/01/24 08:58:40;;;;;;;114.20;29.88;;;1.20;99.90;;;;;;5060665;28;20369;-61
2023/01/24 09:01:09;;;;;;;94.95;25.33;;;1.20;99.90;;;;;;5055516;28;20025;-58
2023/01/24 09:03:36;;;;;;;117.97;27.20;;;1.20;99.90;;;;;;5059100;28;20108;-58
2023/01/24 09:06:02;;;;;;;110.80;26.98;;;1.30;99.90;;;;;;5056391;28;20055;-60
2023/01/24 09:08:28;;;;;;;106.95;26.40;;;1.30;99.90;;;;;;5065254;28;20052;-61
2023/01/24 09:10:58;;;;;;;109.68;27.75;;;1.30;99.90;;;;;;5064337;28;20145;-63
2023/01/24 09:13:24;;;;;;;119.70;29.08;;;1.20;99.90;;;;;;5065235;28;20037;-64
2023/01/24 09:15:49;;;;;;;119.63;29.83;;;1.20;99.90;;;;;;5067500;28;20144;-60
2023/01/24 09:18:16;;;;;;;106.70;28.25;;;1.30;99.90;;;;;;5059491;28;20029;-58
2023/01/24 09:20:42;;;;;;;117.45;28.80;;;1.30;99.90;;;;;;5064723;28;20546;-60
2023/01/24 09:23:16;;;;;;;120.85;29.00;;;1.30;99.90;;;;;;5066755;28;20130;-63
2023/01/24 09:25:48;;;;;;;118.78;30.23;;;1.50;99.90;;;;;;5068136;28;20036;-63
2023/01/24 09:28:14;;;;;;;118.07;30.40;;;1.30;99.90;;;;;;5063628;28;20032;-61
2023/01/24 09:30:40;;;;;;;119.30;31.08;;;1.80;99.90;;;;;;5059339;28;20029;-64
2023/01/24 09:33:05;;;;;;;125.45;31.92;;;1.30;99.90;;;;;;5060635;28;20055;-62
2023/01/24 09:35:31;;;;;;;118.32;31.33;;;1.40;99.90;;;;;;5057106;28;20023;-61
2023/01/24 09:37:56;;;;;;;118.22;29.73;;;1.30;99.90;;;;;;5061695;28;20111;-61
2023/01/24 09:40:43;;;;;;;127.78;30.15;;;0.70;99.90;;;;;;5067600;28;20120;-62
2023/01/24 09:43:17;;;;;;;136.00;30.70;;;1.50;99.90;;;;;;5052454;28;20028;-64
2023/01/24 09:45:53;;;;;;;141.75;31.80;;;1.40;99.90;;;;;;5063610;28;20375;-63
2023/01/24 09:48:20;;;;;;;128.50;34.05;;;1.50;99.90;;;;;;5043480;28;20517;-61
2023/01/24 09:50:52;;;;;;;117.10;31.35;;;1.50;99.90;;;;;;5058454;28;20021;-67
2023/01/24 09:53:30;;;;;;;122.55;28.88;;;1.60;99.90;;;;;;5063677;28;20032;-63
2023/01/24 09:55:58;;;;;;;116.70;30.15;;;1.60;99.90;;;;;;5060310;28;20707;-59
2023/01/24 09:58:31;;;;;;;121.95;31.85;;;1.70;99.90;;;;;;5062077;28;20029;-63
2023/01/24 10:01:01;;;;;;;122.13;31.38;;;1.70;99.90;;;;;;5066214;28;20032;-61
2023/01/24 10:03:27;;;;;;;131.40;33.58;;;1.80;99.90;;;;;;5058855;28;20029;-69
2023/01/24 10:05:56;;;;;;;123.70;31.23;;;1.80;99.90;;;;;;5064500;28;20452;-60
2023/01/24 10:08:43;;;;;;;121.60;29.58;;;1.90;99.90;;;;;;5065122;28;20037;-62
2023/01/24 10:11:11;;;;;;;111.50;29.60;;;2.00;99.90;;;;;;5066472;28;20036;-62
2023/01/24 10:14:12;;;;;;;115.47;31.48;;;2.00;99.90;;;;;;5067308;28;20044;-61
2023/01/24 10:16:56;;;;;;;131.07;31.98;;;2.20;99.90;;;;;;5067979;28;20055;-63
2023/01/24 10:19:31;;;;;;;118.57;30.48;;;2.30;99.90;;;;;;5071630;28;20542;-56
2023/01/24 10:22:07;;;;;;;;;;;2.90;99.90;;;;;;5064509;28;20048;-58
2023/01/24 10:24:38;;;;;;;113.75;31.30;;;2.30;99.90;;;;;;5063990;28;19912;-64
2023/01/24 10:27:23;;;;;;;117.70;33.13;;;2.40;99.90;;;;;;5063424;28;20553;-61
2023/01/24 10:30:00;;;;;;;129.30;29.85;;;2.30;99.90;;;;;;5064105;28;20039;-61
2023/01/24 10:32:34;;;;;;;118.10;30.98;;;2.10;99.90;;;;;;5062501;28;20085;-66
2023/01/24 10:35:13;;;;;;;118.60;31.95;;;2.10;99.90;;;;;;5058054;28;20028;-68
2023/01/24 10:37:43;;;;;;;128.93;33.15;;;2.10;99.90;;;;;;5062548;28;20055;-66
2023/01/24 10:40:14;;;;;;;122.00;31.73;;;2.20;99.90;;;;;;5040393;28;20030;-62
2023/01/24 10:42:40;;;;;;;137.13;34.38;;;2.20;99.90;;;;;;5062093;28;20040;-66
2023/01/24 10:45:32;;;;;;;122.15;31.65;;;2.30;99.90;;;;;;5065154;28;20499;-66
2023/01/24 10:48:16;;;;;;;113.35;32.47;;;2.30;99.90;;;;;;5064887;28;20099;-62
2023/01/24 10:50:43;;;;;;;121.77;31.00;;;2.40;99.90;;;;;;5062776;28;20090;-62
2023/01/24 10:53:14;;;;;;;108.40;30.52;;;2.40;99.90;;;;;;5058624;28;20310;-61
2023/01/24 10:55:40;;;;;;;115.35;31.85;;;2.30;99.90;;;;;;5062271;28;20162;-65
2023/01/24 10:58:24;;;;;;;112.10;29.95;;;2.40;99.90;;;;;;5061742;28;20116;-66
2023/01/24 11:01:05;;;;;;;107.60;31.98;;;2.30;99.90;;;;;;5066527;28;20024;-66
2023/01/24 11:03:36;;;;;;;112.75;30.88;;;2.40;99.90;;;;;;5064913;28;20020;-65
2023/01/24 11:06:02;;;;;;;128.07;31.25;;;2.30;99.90;;;;;;5066723;28;20030;-64
2023/01/24 11:08:36;;;;;;;113.13;30.85;;;2.30;99.90;;;;;;5065743;28;20407;-63
2023/01/24 11:11:03;;;;;;;114.57;31.75;;;2.40;99.90;;;;;;5065876;28;20025;-66
2023/01/24 11:13:36;;;;;;;101.80;29.13;;;2.40;99.90;;;;;;5059991;28;20045;-63
2023/01/24 11:16:20;;;;;;;127.35;31.40;;;2.90;99.90;;;;;;5037747;28;20024;-65
2023/01/24 11:18:49;;;;;;;117.60;31.30;;;2.50;99.90;;;;;;5065534;28;20024;-66
2023/01/24 11:21:17;;;;;;;124.00;31.77;;;2.50;99.90;;;;;;5066574;28;20270;-62
2023/01/24 11:23:43;;;;;;;114.65;31.90;;;2.50;99.90;;;;;;5064887;28;20028;-61
2023/01/24 11:26:25;;;;;;;105.53;30.25;;;2.50;99.90;;;;;;5058457;28;20052;-64
2023/01/24 11:29:02;;;;;;;105.03;28.45;;;2.60;99.90;;;;;;5064611;28;20036;-63
2023/01/24 11:31:38;;;;;;;101.15;29.33;;;2.60;99.90;;;;;;5053761;28;20063;-65
2023/01/24 11:34:14;;;;;;;110.40;27.98;;;2.60;99.90;;;;;;5057346;28;20028;-65
2023/01/24 11:37:12;;;;;;;111.45;29.60;;;3.00;99.90;;;;;;5059441;28;20020;-61
2023/01/24 11:39:54;;;;;;;120.55;32.88;;;2.70;99.90;;;;;;5040022;28;20037;-64
2023/01/24 11:42:22;;;;;;;111.28;31.52;;;2.50;99.90;;;;;;5053252;28;20032;-62
2023/01/24 11:44:51;;;;;;;123.57;31.48;;;2.30;99.90;;;;;;5062791;28;20028;-63
2023/01/24 11:47:34;;;;;;;118.20;31.27;;;2.40;99.90;;;;;;5061323;28;20100;-61
2023/01/24 11:50:26;;;;;;;109.20;28.67;;;2.50;99.90;;;;;;5065954;28;20024;-59
2023/01/24 11:53:38;;;;;;;111.00;31.17;;;2.50;99.90;;;;;;5052907;28;20048;-62
2023/01/24 11:56:29;;;;;;;105.65;29.02;;;2.40;99.90;;;;;;5057862;28;20500;-63
2023/01/24 11:59:27;;;;;;;96.88;27.45;;;2.50;99.90;;;;;;5061221;28;20071;-62
2023/01/24 12:01:55;;;;;;;89.93;26.17;;;2.50;99.90;;;;;;5058952;28;20028;-66
2023/01/24 12:04:59;;;;;;;97.90;28.17;;;2.70;99.90;;;;;;5059833;28;20071;-60
2023/01/24 12:07:38;;;;;;;105.88;28.20;;;2.50;99.90;;;;;;5062592;28;20576;-53
2023/01/24 12:10:31;;;;;;;92.50;28.15;;;2.60;99.90;;;;;;5053931;28;20069;-65
2023/01/24 12:13:38;;;;;;;99.18;27.83;;;2.50;99.90;;;;;;5056122;28;20028;-68
2023/01/24 12:16:42;;;;;;;90.55;28.35;;;2.40;99.90;;;;;;5058021;28;20395;-64
2023/01/24 12:19:23;;;;;;;95.43;28.98;;;2.30;99.90;;;;;;5059388;28;20028;-64
2023/01/24 12:21:54;;;;;;;108.20;30.35;;;2.30;99.90;;;;;;5055390;28;20079;-62
2023/01/24 12:24:41;;;;;;;85.88;27.25;;;2.50;99.90;;;;;;5043676;28;20119;-60
2023/01/24 12:27:16;;;;;;;83.72;25.55;;;2.40;99.90;;;;;;5057499;28;20051;-66
2023/01/24 12:29:52;;;;;;;92.03;25.50;;;2.40;99.90;;;;;;5054195;28;20071;-63
2023/01/24 12:32:31;;;;;;;88.28;27.38;;;2.40;99.90;;;;;;5061766;28;20154;-63
2023/01/24 12:35:09;;;;;;;86.18;26.10;;;2.40;99.90;;;;;;5059991;28;20503;-62
2023/01/24 12:37:42;;;;;;;95.40;27.38;;;2.50;99.90;;;;;;5055023;28;20491;-63
2023/01/24 12:40:23;;;;;;;98.80;28.27;;;2.50;99.90;;;;;;5063859;28;20114;-70
2023/01/24 12:43:01;;;;;;;100.78;28.70;;;2.50;99.90;;;;;;5064340;28;20036;-66
2023/01/24 12:45:36;;;;;;;104.65;29.77;;;2.30;99.90;;;;;;5056641;28;20029;-60
2023/01/24 12:48:22;;;;;;;92.18;27.35;;;2.40;99.90;;;;;;5065162;28;20028;-63
2023/01/24 12:51:21;;;;;;;87.93;24.92;;;2.30;99.90;;;;;;5051241;28;20032;-68
2023/01/24 12:53:55;;;;;;;91.03;26.50;;;2.30;99.90;;;;;;5059079;28;20032;-63
2023/01/24 12:56:41;;;;;;;76.28;25.25;;;2.30;99.90;;;;;;5066587;28;20033;-55
2023/01/24 12:59:10;;;;;;;83.40;25.85;;;2.30;99.90;;;;;;5062002;28;20086;-65
2023/01/24 13:02:09;;;;;;;82.75;26.77;;;2.60;99.90;;;;;;5067817;28;20074;-63
2023/01/24 13:05:22;;;;;;;73.00;24.45;;;2.20;99.90;;;;;;5067066;28;20107;-64
2023/01/24 13:08:21;;;;;;;77.05;23.80;;;2.20;99.90;;;;;;5014371;28;20031;-60
2023/01/24 13:11:13;;;;;;;75.20;25.30;;;2.20;99.90;;;;;;5069454;28;20090;-60
2023/01/24 13:13:54;;;;;;;80.35;25.77;;;2.30;99.90;;;;;;5059758;28;20097;-61
2023/01/24 13:16:45;;;;;;;89.75;26.70;;;2.30;99.90;;;;;;5063500;28;20033;-63
2023/01/24 13:19:29;;;;;;;80.22;26.15;;;2.20;99.90;;;;;;5056340;28;20078;-67
2023/01/24 13:22:24;;;;;;;81.45;27.05;;;2.20;99.90;;;;;;5067225;28;20025;-61
2023/01/24 13:25:10;;;;;;;87.30;24.90;;;2.30;99.90;;;;;;5044136;28;20074;-63
2023/01/24 13:27:45;;;;;;;89.85;28.85;;;2.40;99.90;;;;;;5055294;28;20036;-63
2023/01/24 13:30:32;;;;;;;80.78;23.27;;;2.40;99.90;;;;;;5056837;28;20053;-66